Station Historical Data
Daily Summary for August 25, 2017 Units:  Metric    English   Both
« Previous Day
Next Day »
Daily Weekly Monthly Yearly Custom
  High: Low: Average:
Temperature: 21.7 °C 11.4 °C 16.8 °C
Dew Point: 12.6 °C 6.2 °C 9.8 °C
Humidity: 91% 39% 66%
Wind Speed: 12.9km/h 0km/h 1.9km/h
Wind Gust: 17.7km/h - -
Wind- - WSW
Pressure: 1024.9 hPa 1018.2 hPa -
Precipitation: 0 mm    
Historical Graphs
 
 
Tabular Data for August 25, 2017
Time Temperature Dew Point Pressure Wind Wind Speed Wind Gust Humidity Rainfall Rate (Hourly)
00:04 15.6 °C 11.4 °C 1018.2 hPa Calm     76% 0 mm
00:09 15.7 °C 11.4 °C 1018.2 hPa Calm     76% 0 mm
00:14 15.7 °C 11.4 °C 1018.2 hPa Calm     76% 0 mm
00:19 15.6 °C 11.4 °C 1018.2 hPa Calm     76% 0 mm
00:24 15.6 °C 11.4 °C 1018.2 hPa Calm     76% 0 mm
00:29 15.6 °C 11.6 °C 1018.2 hPa Calm     77% 0 mm
00:34 15.6 °C 11.6 °C 1018.5 hPa Calm     77% 0 mm
00:39 15.6 °C 11.6 °C 1018.5 hPa Calm     77% 0 mm
00:44 15.6 °C 11.6 °C 1018.5 hPa Calm     77% 0 mm
00:49 15.7 °C 11.8 °C 1018.5 hPa Calm     78% 0 mm
00:54 15.7 °C 11.9 °C 1018.5 hPa Calm     78% 0 mm
00:59 15.8 °C 11.8 °C 1018.5 hPa Calm     77% 0 mm
01:04 15.7 °C 11.9 °C 1018.5 hPa Calm     78% 0 mm
01:09 15.7 °C 11.9 °C 1018.5 hPa Calm     78% 0 mm
01:14 15.8 °C 11.9 °C 1018.8 hPa Calm     78% 0 mm
01:19 15.8 °C 11.9 °C 1018.8 hPa Calm     78% 0 mm
01:24 15.7 °C 11.9 °C 1018.8 hPa Calm     78% 0 mm
01:29 15.7 °C 11.9 °C 1018.8 hPa Calm     78% 0 mm
01:34 15.8 °C 11.8 °C 1018.8 hPa Calm     77% 0 mm
01:39 15.7 °C 11.7 °C 1018.8 hPa Calm     77% 0 mm
01:44 15.7 °C 11.8 °C 1018.8 hPa Calm     78% 0 mm
01:49 15.6 °C 11.8 °C 1018.8 hPa Calm     78% 0 mm
01:54 15.6 °C 11.8 °C 1018.5 hPa Calm     78% 0 mm
01:59 15.6 °C 11.7 °C 1018.5 hPa Calm     78% 0 mm
02:04 15.6 °C 11.6 °C 1018.8 hPa Calm     77% 0 mm
02:09 15.5 °C 11.7 °C 1018.8 hPa Calm     78% 0 mm
02:14 15.3 °C 11.5 °C 1018.8 hPa Calm     78% 0 mm
02:19 15.1 °C 11.4 °C 1018.8 hPa Calm     79% 0 mm
02:24 14.9 °C 11.5 °C 1018.8 hPa Calm     80% 0 mm
02:29 14.7 °C 11.3 °C 1018.8 hPa Calm     80% 0 mm
02:34 14.5 °C 11.3 °C 1018.8 hPa Calm     81% 0 mm
02:39 14.4 °C 11.3 °C 1018.8 hPa Calm     82% 0 mm
02:44 14.3 °C 11.2 °C 1018.8 hPa Calm     82% 0 mm
02:49 14.2 °C 11.1 °C 1018.8 hPa Calm     82% 0 mm
02:54 14.1 °C 11.2 °C 1019.2 hPa Calm     83% 0 mm
02:59 13.9 °C 11.1 °C 1019.2 hPa Calm     83% 0 mm
03:04 13.8 °C 10.8 °C 1019.2 hPa Calm     82% 0 mm
03:09 13.8 °C 10.9 °C 1019.2 hPa Calm     83% 0 mm
03:14 13.7 °C 10.8 °C 1019.2 hPa Calm     83% 0 mm
03:19 13.6 °C 10.8 °C 1019.2 hPa Calm     83% 0 mm
03:24 13.7 °C 11 °C 1019.2 hPa Calm     84% 0 mm
03:29 13.6 °C 10.9 °C 1019.2 hPa Calm     84% 0 mm
03:34 13.6 °C 10.9 °C 1019.2 hPa Calm     84% 0 mm
03:39 13.3 °C 10.7 °C 1019.2 hPa Calm     84% 0 mm
03:44 13.2 °C 10.5 °C 1019.2 hPa Calm     84% 0 mm
03:49 13.1 °C 10.7 °C 1019.2 hPa Calm     85% 0 mm
03:54 13.1 °C 10.6 °C 1019.5 hPa Calm     85% 0 mm
03:59 13 °C 10.6 °C 1019.5 hPa Calm     85% 0 mm
04:04 12.9 °C 10.4 °C 1019.5 hPa Calm     85% 0 mm
04:09 12.7 °C 10.4 °C 1019.5 hPa Calm     86% 0 mm
04:14 12.6 °C 10.3 °C 1019.5 hPa Calm     86% 0 mm
04:19 12.4 °C 10.3 °C 1019.5 hPa Calm     87% 0 mm
04:24 12.3 °C 10.2 °C 1019.5 hPa Calm     87% 0 mm
04:29 12.1 °C 10 °C 1019.9 hPa Calm     87% 0 mm
04:34 12.1 °C 10.2 °C 1019.9 hPa Calm     88% 0 mm
04:39 11.9 °C 10 °C 1019.9 hPa Calm     88% 0 mm
04:44 11.8 °C 9.9 °C 1019.9 hPa Calm     88% 0 mm
04:49 11.8 °C 9.9 °C 1019.9 hPa Calm     88% 0 mm
04:54 11.8 °C 10 °C 1019.9 hPa Calm     89% 0 mm
04:59 11.8 °C 10 °C 1019.9 hPa Calm     89% 0 mm
05:04 11.8 °C 10 °C 1019.9 hPa Calm     89% 0 mm
05:09 11.7 °C 9.9 °C 1019.9 hPa Calm     89% 0 mm
05:14 11.6 °C 9.8 °C 1020.2 hPa Calm     89% 0 mm
05:19 11.6 °C 9.8 °C 1020.2 hPa Calm     89% 0 mm
05:24 11.6 °C 9.8 °C 1020.2 hPa Calm     89% 0 mm
05:29 11.4 °C 9.9 °C 1020.2 hPa Calm     90% 0 mm
05:34 11.4 °C 9.8 °C 1020.2 hPa Calm     90% 0 mm
05:39 11.4 °C 9.9 °C 1020.2 hPa Calm     90% 0 mm
05:44 11.4 °C 9.9 °C 1020.5 hPa Calm     90% 0 mm
05:49 11.7 °C 10.3 °C 1020.5 hPa Calm     91% 0 mm
05:54 11.9 °C 10.3 °C 1020.5 hPa Calm     90% 0 mm
05:59 11.9 °C 10.3 °C 1020.5 hPa Calm     90% 0 mm
06:04 12 °C 10.4 °C 1020.5 hPa Calm     90% 0 mm
06:09 11.9 °C 10.3 °C 1020.5 hPa Calm     90% 0 mm
06:14 11.9 °C 10.3 °C 1020.5 hPa Calm     90% 0 mm
06:19 11.8 °C 10.2 °C 1020.9 hPa Calm     90% 0 mm
06:24 11.7 °C 10.1 °C 1020.9 hPa Calm     90% 0 mm
06:29 11.6 °C 9.9 °C 1020.9 hPa Calm     90% 0 mm
06:34 11.5 °C 9.9 °C 1020.9 hPa Calm     90% 0 mm
06:39 11.5 °C 9.9 °C 1021.2 hPa Calm     90% 0 mm
06:44 11.5 °C 9.9 °C 1021.2 hPa Calm     90% 0 mm
06:49 11.5 °C 10.1 °C 1021.2 hPa Calm     91% 0 mm
06:54 11.6 °C 10.1 °C 1021.2 hPa Calm     91% 0 mm
06:59 11.7 °C 10.2 °C 1021.2 hPa Calm     91% 0 mm
07:04 11.8 °C 10.4 °C 1021.2 hPa Calm     91% 0 mm
07:09 12.1 °C 10.6 °C 1021.2 hPa Calm     91% 0 mm
07:14 12.2 °C 10.8 °C 1021.6 hPa Calm     91% 0 mm
07:19 12.4 °C 11 °C 1021.2 hPa Calm     91% 0 mm
07:24 12.7 °C 11.3 °C 1021.2 hPa Calm     91% 0 mm
07:29 13 °C 11.4 °C 1021.2 hPa Calm     90% 0 mm
07:34 13.3 °C 11.7 °C 1021.2 hPa Calm     90% 0 mm
07:39 13.6 °C 11.8 °C 1021.6 hPa Calm     89% 0 mm
07:44 13.9 °C 11.9 °C 1021.6 hPa Calm     88% 0 mm
07:49 14.2 °C 12.1 °C 1021.6 hPa Calm     87% 0 mm
07:54 14.4 °C 12.1 °C 1021.6 hPa Calm     86% 0 mm
07:59 14.6 °C 11.9 °C 1021.6 hPa Calm     84% 0 mm
08:04 14.8 °C 11.9 °C 1021.6 hPa Calm     83% 0 mm
08:09 15.1 °C 12 °C 1021.9 hPa Calm     82% 0 mm
08:14 15.2 °C 11.9 °C 1021.9 hPa ENE 3.2 km/h 4.8 km/h 81% 0 mm
08:19 15.4 °C 12 °C 1021.9 hPa NNW 1.6 km/h 4.8 km/h 80% 0 mm
08:24 15.6 °C 12 °C 1021.9 hPa Calm   4.8 km/h 79% 0 mm
08:29 15.9 °C 12.1 °C 1021.9 hPa NNW 1.6 km/h 4.8 km/h 78% 0 mm
08:34 16.1 °C 12.1 °C 1021.9 hPa NNW 1.6 km/h 4.8 km/h 77% 0 mm
08:39 16.6 °C 12.1 °C 1021.9 hPa Calm   6.4 km/h 75% 0 mm
08:44 16.8 °C 11.9 °C 1021.9 hPa NE 1.6 km/h 8 km/h 73% 0 mm
08:49 17 °C 12.3 °C 1022.2 hPa Calm   4.8 km/h 74% 0 mm
08:54 17.1 °C 11.9 °C 1022.2 hPa NNE 1.6 km/h 4.8 km/h 72% 0 mm
08:59 17.3 °C 12.2 °C 1022.2 hPa North 1.6 km/h 4.8 km/h 72% 0 mm
09:04 17.1 °C 11.8 °C 1022.2 hPa NNE 1.6 km/h 6.4 km/h 71% 0 mm
09:09 17.6 °C 12.2 °C 1022.2 hPa North 3.2 km/h 6.4 km/h 71% 0 mm
09:14 17.8 °C 12.2 °C 1022.2 hPa NE 4.8 km/h 6.4 km/h 70% 0 mm
09:19 17.9 °C 12.2 °C 1022.2 hPa NNW 3.2 km/h 4.8 km/h 69% 0 mm
09:24 18.1 °C 12.1 °C 1022.2 hPa North 1.6 km/h 8 km/h 68% 0 mm
09:29 18.1 °C 12.3 °C 1022.2 hPa NE 3.2 km/h 11.3 km/h 69% 0 mm
09:34 18.1 °C 12.1 °C 1022.2 hPa NE 4.8 km/h 4.8 km/h 68% 0 mm
09:39 18.5 °C 12 °C 1022.2 hPa East 4.8 km/h 11.3 km/h 66% 0 mm
09:44 18.3 °C 11.9 °C 1022.2 hPa ESE 1.6 km/h 8 km/h 66% 0 mm
09:49 18.3 °C 11.3 °C 1022.2 hPa North 1.6 km/h 4.8 km/h 64% 0 mm
09:54 18.6 °C 11.9 °C 1022.2 hPa East 3.2 km/h 9.7 km/h 65% 0 mm
09:59 18.8 °C 11.9 °C 1022.2 hPa NE 1.6 km/h 9.7 km/h 64% 0 mm
10:04 18.6 °C 12.1 °C 1022.6 hPa North 1.6 km/h 6.4 km/h 66% 0 mm
10:09 19.1 °C 12.6 °C 1022.6 hPa NW 3.2 km/h 6.4 km/h 66% 0 mm
10:14 19.2 °C 11.3 °C 1022.6 hPa NW 3.2 km/h 8 km/h 60% 0 mm
10:19 19.2 °C 11.8 °C 1022.6 hPa NNE 3.2 km/h 9.7 km/h 62% 0 mm
10:24 19.1 °C 11.4 °C 1022.6 hPa Calm   9.7 km/h 61% 0 mm
10:29 19.3 °C 12.1 °C 1022.6 hPa NE 3.2 km/h 9.7 km/h 63% 0 mm
10:34 19.5 °C 10.8 °C 1022.6 hPa North 3.2 km/h 8 km/h 57% 0 mm
10:39 19.6 °C 10.8 °C 1022.6 hPa Calm   8 km/h 57% 0 mm
10:44 19.7 °C 11.4 °C 1022.6 hPa ENE 8 km/h 12.9 km/h 59% 0 mm
10:49 20.3 °C 11.6 °C 1022.6 hPa NNE 9.7 km/h 9.7 km/h 57% 0 mm
10:54 20.2 °C 10.8 °C 1022.6 hPa NNW 6.4 km/h 9.7 km/h 55% 0 mm
10:59 20.1 °C 11.3 °C 1022.6 hPa NNW 3.2 km/h 9.7 km/h 57% 0 mm
11:04 20.4 °C 11.4 °C 1022.6 hPa NNW 4.8 km/h 12.9 km/h 56% 0 mm
11:09 19.7 °C 10.2 °C 1022.6 hPa NNW 4.8 km/h 12.9 km/h 54% 0 mm
11:14 18.9 °C 9.7 °C 1022.6 hPa NNW 4.8 km/h 9.7 km/h 55% 0 mm
11:19 19.4 °C 10.9 °C 1022.6 hPa WNW 12.9 km/h 12.9 km/h 58% 0 mm
11:24 19.6 °C 10.3 °C 1022.6 hPa North 6.4 km/h 12.9 km/h 55% 0 mm
11:29 20.2 °C 10.9 °C 1022.6 hPa NW 4.8 km/h 12.9 km/h 55% 0 mm
11:34 20.4 °C 10.5 °C 1022.6 hPa North 4.8 km/h 11.3 km/h 53% 0 mm
11:39 20.3 °C 10.7 °C 1022.6 hPa North 4.8 km/h 11.3 km/h 54% 0 mm
11:44 20.9 °C 11.2 °C 1022.6 hPa North 3.2 km/h 11.3 km/h 54% 0 mm
11:49 20.4 °C 9.7 °C 1022.6 hPa North 4.8 km/h 14.5 km/h 50% 0 mm
11:54 21 °C 11.3 °C 1022.6 hPa WNW 3.2 km/h 11.3 km/h 54% 0 mm
11:59 20.5 °C 10.6 °C 1022.2 hPa NNW 3.2 km/h 11.3 km/h 53% 0 mm
12:04 19.4 °C 9.9 °C 1022.6 hPa North 4.8 km/h 11.3 km/h 54% 0 mm
12:09 19.4 °C 10.4 °C 1022.6 hPa North 3.2 km/h 9.7 km/h 56% 0 mm
12:14 19.8 °C 11.1 °C 1022.2 hPa NNW 4.8 km/h 12.9 km/h 57% 0 mm
12:19 20.6 °C 11.4 °C 1022.2 hPa NNW 4.8 km/h 11.3 km/h 56% 0 mm
12:24 20.4 °C 11.3 °C 1022.2 hPa NNW 1.6 km/h 14.5 km/h 56% 0 mm
12:29 20.7 °C 11.6 °C 1022.2 hPa NNE 4.8 km/h 14.5 km/h 56% 0 mm
12:34 20.1 °C 9.3 °C 1022.2 hPa NNW 4.8 km/h 14.5 km/h 50% 0 mm
12:39 20.1 °C 10.2 °C 1022.2 hPa NNW 4.8 km/h 14.5 km/h 53% 0 mm
12:44 20.8 °C 11.4 °C 1022.2 hPa NE 6.4 km/h 11.3 km/h 55% 0 mm
12:49 20.9 °C 11.8 °C 1022.6 hPa NNW 8 km/h 11.3 km/h 56% 0 mm
12:54 20.6 °C 10.7 °C 1022.2 hPa NNW 1.6 km/h 11.3 km/h 53% 0 mm
12:59 20.1 °C 10.5 °C 1022.2 hPa North 1.6 km/h 11.3 km/h 54% 0 mm
13:04 19.8 °C 11.3 °C 1022.2 hPa North 6.4 km/h 11.3 km/h 58% 0 mm
13:09 20.3 °C 9.8 °C 1022.6 hPa NNW 4.8 km/h 12.9 km/h 51% 0 mm
13:14 20.3 °C 9.8 °C 1022.2 hPa NNW 4.8 km/h 8 km/h 51% 0 mm
13:19 20.8 °C 11.7 °C 1022.6 hPa NE 8 km/h 12.9 km/h 56% 0 mm
13:24 20.1 °C 9.6 °C 1022.2 hPa NNW 12.9 km/h 12.9 km/h 51% 0 mm
13:29 19.7 °C 9.9 °C 1022.2 hPa NW 4.8 km/h 12.9 km/h 53% 0 mm
13:39 20.9 °C 10.1 °C 1022.6 hPa NNW 3.2 km/h 8 km/h 50% 0 mm
13:44 20.7 °C 10.2 °C 1022.6 hPa NNW 3.2 km/h 9.7 km/h 51% 0 mm
13:49 20.3 °C 9.6 °C 1022.6 hPa NNW 3.2 km/h 11.3 km/h 50% 0 mm
13:54 20.4 °C 9.7 °C 1022.6 hPa NNW 4.8 km/h 11.3 km/h 50% 0 mm
13:59 20.6 °C 9.2 °C 1022.6 hPa North 1.6 km/h 14.5 km/h 48% 0 mm
14:04 20.5 °C 11.2 °C 1022.6 hPa NNE 12.9 km/h 12.9 km/h 55% 0 mm
14:09 21 °C 10.2 °C 1022.6 hPa North 4.8 km/h 12.9 km/h 50% 0 mm
14:14 20.8 °C 10.6 °C 1022.6 hPa North 1.6 km/h 12.9 km/h 52% 0 mm
14:19 21 °C 9.9 °C 1022.6 hPa NNE 9.7 km/h 14.5 km/h 49% 0 mm
14:24 21.3 °C 11.7 °C 1022.6 hPa Calm   9.7 km/h 54% 0 mm
14:29 21.7 °C 10.5 °C 1022.6 hPa NW 8 km/h 11.3 km/h 49% 0 mm
14:34 21.2 °C 9.1 °C 1022.6 hPa NNW 4.8 km/h 11.3 km/h 46% 0 mm
14:39 21.3 °C 9.9 °C 1022.2 hPa NW 6.4 km/h 11.3 km/h 48% 0 mm
14:44 21.4 °C 9.3 °C 1022.2 hPa WNW 6.4 km/h 14.5 km/h 46% 0 mm
14:49 21.1 °C 9 °C 1022.2 hPa NW 4.8 km/h 12.9 km/h 46% 0 mm
14:59 21.6 °C 10.1 °C 1022.2 hPa NW 4.8 km/h 12.9 km/h 48% 0 mm
15:04 21.3 °C 9.2 °C 1022.2 hPa NNW 6.4 km/h 16.1 km/h 46% 0 mm
15:09 21.1 °C 9.3 °C 1022.2 hPa NNW 4.8 km/h 16.1 km/h 47% 0 mm
15:14 21.4 °C 10.6 °C 1022.2 hPa NE 6.4 km/h 8 km/h 50% 0 mm
15:19 21.3 °C 8.5 °C 1022.6 hPa NNW 4.8 km/h 16.1 km/h 44% 0 mm
15:24 20.9 °C 8.9 °C 1022.2 hPa NNW 3.2 km/h 11.3 km/h 46% 0 mm
15:29 21.5 °C 9.4 °C 1022.2 hPa NNW 6.4 km/h 8 km/h 46% 0 mm
15:34 21.4 °C 8.9 °C 1022.2 hPa North 4.8 km/h 14.5 km/h 45% 0 mm
15:39 21.4 °C 9.3 °C 1022.2 hPa NNW 4.8 km/h 14.5 km/h 46% 0 mm
15:44 21.3 °C 9.6 °C 1022.6 hPa NNW 6.4 km/h 17.7 km/h 47% 0 mm
15:49 20.9 °C 9.5 °C 1022.6 hPa NNW 3.2 km/h 8 km/h 48% 0 mm
15:54 21.3 °C 8.5 °C 1022.2 hPa NNE 11.3 km/h 14.5 km/h 44% 0 mm
15:59 21.4 °C 8.3 °C 1022.2 hPa NNW 9.7 km/h 12.9 km/h 43% 0 mm
16:04 21.4 °C 9.3 °C 1022.2 hPa Calm   11.3 km/h 46% 0 mm
16:09 21.4 °C 8.3 °C 1022.2 hPa NNW 3.2 km/h 11.3 km/h 43% 0 mm
16:14 21.3 °C 7.5 °C 1022.2 hPa NNW 3.2 km/h 11.3 km/h 41% 0 mm
16:19 21.2 °C 7.4 °C 1022.2 hPa NNW 4.8 km/h 14.5 km/h 41% 0 mm
16:24 20.8 °C 7.1 °C 1022.2 hPa North 6.4 km/h 14.5 km/h 41% 0 mm
16:29 21 °C 7.6 °C 1022.2 hPa NNE 6.4 km/h 14.5 km/h 42% 0 mm
16:34 20.9 °C 7.6 °C 1022.6 hPa NNW 6.4 km/h 9.7 km/h 42% 0 mm
16:39 20.9 °C 6.8 °C 1022.6 hPa NW 4.8 km/h 17.7 km/h 40% 0 mm
16:44 20.7 °C 6.6 °C 1022.6 hPa NW 6.4 km/h 17.7 km/h 40% 0 mm
16:49 20.8 °C 8.1 °C 1022.6 hPa NW 8 km/h 8 km/h 44% 0 mm
16:54 20.8 °C 6.3 °C 1022.6 hPa ENE 3.2 km/h 11.3 km/h 39% 0 mm
16:59 20.6 °C 6.2 °C 1022.6 hPa NNW 3.2 km/h 11.3 km/h 39% 0 mm
17:04 20.4 °C 7.8 °C 1022.6 hPa North 1.6 km/h 9.7 km/h 44% 0 mm
17:09 20.7 °C 7.3 °C 1022.6 hPa NNW 3.2 km/h 9.7 km/h 42% 0 mm
17:14 20.8 °C 7.7 °C 1022.6 hPa NW 3.2 km/h 9.7 km/h 43% 0 mm
17:19 20.6 °C 8.6 °C 1022.6 hPa North 3.2 km/h 8 km/h 46% 0 mm
17:24 20.6 °C 7.6 °C 1022.9 hPa North 3.2 km/h 11.3 km/h 43% 0 mm
17:29 20.4 °C 7.4 °C 1022.9 hPa Calm   9.7 km/h 43% 0 mm
17:34 20.3 °C 7.3 °C 1022.6 hPa WNW 3.2 km/h 4.8 km/h 43% 0 mm
17:39 20.4 °C 6.7 °C 1022.9 hPa NNW 3.2 km/h 9.7 km/h 41% 0 mm
17:44 20.3 °C 7 °C 1022.9 hPa NNW 3.2 km/h 9.7 km/h 42% 0 mm
17:49 20.3 °C 8 °C 1022.9 hPa NNW 3.2 km/h 9.7 km/h 45% 0 mm
17:54 20.2 °C 7.5 °C 1022.9 hPa NNE 3.2 km/h 16.1 km/h 44% 0 mm
17:59 20.1 °C 6.8 °C 1022.9 hPa NW 4.8 km/h 12.9 km/h 42% 0 mm
18:04 19.8 °C 6.9 °C 1022.9 hPa Calm   11.3 km/h 43% 0 mm
18:09 19.7 °C 6.7 °C 1022.9 hPa North 3.2 km/h 8 km/h 43% 0 mm
18:14 19.6 °C 7 °C 1022.9 hPa NNW 3.2 km/h 8 km/h 44% 0 mm
18:19 19.5 °C 6.9 °C 1022.9 hPa NW 3.2 km/h 9.7 km/h 44% 0 mm
18:24 19.3 °C 7.4 °C 1022.9 hPa NNW 4.8 km/h 9.7 km/h 46% 0 mm
18:29 19.3 °C 7.7 °C 1022.9 hPa NNW 3.2 km/h 9.7 km/h 47% 0 mm
18:34 19.4 °C 7.8 °C 1022.9 hPa NE 9.7 km/h 14.5 km/h 47% 0 mm
18:39 19.3 °C 7.1 °C 1022.9 hPa Calm   9.7 km/h 45% 0 mm
18:44 19.2 °C 7.6 °C 1022.9 hPa NNW 3.2 km/h 12.9 km/h 47% 0 mm
18:49 18.9 °C 7.4 °C 1022.9 hPa NW 3.2 km/h 8 km/h 47% 0 mm
18:54 18.8 °C 7.3 °C 1022.9 hPa NNW 3.2 km/h 8 km/h 47% 0 mm
18:59 18.8 °C 7.6 °C 1022.9 hPa NE 3.2 km/h 12.9 km/h 48% 0 mm
19:04 18.6 °C 8 °C 1022.9 hPa Calm   6.4 km/h 50% 0 mm
19:09 18.6 °C 7.6 °C 1022.9 hPa NNW 1.6 km/h 6.4 km/h 49% 0 mm
19:14 18.4 °C 7.8 °C 1022.9 hPa NNW 1.6 km/h 6.4 km/h 50% 0 mm
19:19 18.3 °C 7.7 °C 1022.9 hPa NNW 1.6 km/h 3.2 km/h 50% 0 mm
19:24 18.2 °C 7.3 °C 1022.9 hPa NNW 1.6 km/h 3.2 km/h 49% 0 mm
19:29 18.1 °C 7.5 °C 1022.9 hPa Calm   3.2 km/h 50% 0 mm
19:34 17.9 °C 7.9 °C 1023.2 hPa Calm     52% 0 mm
19:39 18 °C 7.7 °C 1023.2 hPa Calm     51% 0 mm
19:44 17.8 °C 7.8 °C 1023.2 hPa Calm     52% 0 mm
19:49 17.7 °C 7.7 °C 1023.2 hPa Calm     52% 0 mm
19:54 17.7 °C 7.7 °C 1023.2 hPa Calm     52% 0 mm
19:59 17.6 °C 7.9 °C 1023.2 hPa Calm     53% 0 mm
20:04 17.3 °C 7.7 °C 1023.2 hPa Calm     53% 0 mm
20:09 17.2 °C 7.8 °C 1023.2 hPa Calm     54% 0 mm
20:14 17.1 °C 7.9 °C 1023.2 hPa Calm     55% 0 mm
20:19 17 °C 7.9 °C 1023.2 hPa Calm     55% 0 mm
20:24 16.8 °C 8 °C 1023.2 hPa Calm     56% 0 mm
20:29 16.8 °C 7.7 °C 1023.2 hPa Calm     55% 0 mm
20:34 16.6 °C 8.1 °C 1023.6 hPa Calm     57% 0 mm
20:39 16.4 °C 7.9 °C 1023.6 hPa Calm     57% 0 mm
20:44 16.4 °C 7.9 °C 1023.6 hPa Calm     57% 0 mm
20:49 16.3 °C 7.8 °C 1023.6 hPa Calm     57% 0 mm
20:54 16.3 °C 7.7 °C 1023.6 hPa Calm     57% 0 mm
20:59 16.2 °C 7.9 °C 1023.6 hPa Calm     58% 0 mm
21:04 16.1 °C 7.8 °C 1023.9 hPa Calm     58% 0 mm
21:09 15.9 °C 7.9 °C 1023.9 hPa Calm     59% 0 mm
21:14 15.8 °C 7.8 °C 1023.9 hPa Calm     59% 0 mm
21:19 15.7 °C 7.9 °C 1023.9 hPa Calm     60% 0 mm
21:24 15.4 °C 7.9 °C 1023.9 hPa Calm     61% 0 mm
21:29 15.1 °C 8.1 °C 1023.9 hPa Calm     63% 0 mm
21:34 14.8 °C 8.1 °C 1024.3 hPa Calm     64% 0 mm
21:39 14.8 °C 8.1 °C 1023.9 hPa Calm     64% 0 mm
21:44 14.6 °C 8.1 °C 1024.3 hPa Calm     65% 0 mm
21:49 14.6 °C 7.9 °C 1024.3 hPa Calm     64% 0 mm
21:54 14.5 °C 8 °C 1024.3 hPa Calm     65% 0 mm
21:59 14.6 °C 8.1 °C 1024.3 hPa Calm     65% 0 mm
22:04 14.4 °C 8.1 °C 1024.3 hPa Calm     66% 0 mm
22:09 14.3 °C 8.1 °C 1024.3 hPa Calm     66% 0 mm
22:14 14.2 °C 8.3 °C 1024.3 hPa Calm     68% 0 mm
22:19 14.1 °C 8.2 °C 1024.3 hPa Calm     68% 0 mm
22:24 13.9 °C 8.3 °C 1024.3 hPa Calm     69% 0 mm
22:29 13.9 °C 8.3 °C 1024.6 hPa Calm     69% 0 mm
22:34 13.8 °C 8.4 °C 1024.6 hPa Calm     70% 0 mm
22:39 13.9 °C 8.3 °C 1024.6 hPa Calm     69% 0 mm
22:44 13.8 °C 8.4 °C 1024.6 hPa Calm     70% 0 mm
22:49 13.7 °C 8.3 °C 1024.6 hPa Calm     70% 0 mm
22:54 13.8 °C 8.4 °C 1024.6 hPa Calm     70% 0 mm
22:59 13.9 °C 8.5 °C 1024.6 hPa Calm     70% 0 mm
23:04 13.8 °C 8.4 °C 1024.6 hPa Calm     70% 0 mm
23:09 13.6 °C 8.4 °C 1024.6 hPa Calm     71% 0 mm
23:15 13.5 °C 8.6 °C 1024.6 hPa Calm     72% 0 mm
23:24 13.3 °C 8.6 °C 1024.6 hPa Calm     73% 0 mm
23:29 13.2 °C 8.5 °C 1024.6 hPa Calm     73% 0 mm
23:34 13.1 °C 8.6 °C 1024.6 hPa Calm     74% 0 mm
23:39 13.1 °C 8.5 °C 1024.6 hPa Calm     74% 0 mm
23:44 12.8 °C 8.5 °C 1024.6 hPa Calm     75% 0 mm
23:49 12.6 °C 8.3 °C 1024.9 hPa Calm     75% 0 mm
23:54 12.6 °C 8.4 °C 1024.9 hPa Calm     76% 0 mm
23:59 12.6 °C 8.3 °C 1024.9 hPa Calm     75% 0 mm
Buffalo, New York, USA
Compliments of Weather Underground - 2.5 mb